sensor_id;sensor_type;location;lat;lon;timestamp;pressure;altitude;pressure_sealevel;temperature;humidity
74431;BME280;62863;52.062;23.764;2022-10-16T08:09:15;1027.2;;;7.3;82
74431;BME280;62863;52.062;23.764;2022-10-16T08:13:55;1030.5;;;19.1;46.3
74431;BME280;62863;52.062;23.764;2022-10-16T08:19:05;1030.5;;;18.6;47.5
74431;BME280;62863;52.062;23.764;2022-10-16T08:23:55;1030.5;;;18.2;48.5
74431;BME280;62863;52.062;23.764;2022-10-16T08:28:51;1030.5;;;17.9;50.1
74431;BME280;62863;52.062;23.764;2022-10-16T08:34:15;1030.5;;;17.9;50.8
74431;BME280;62863;52.062;23.764;2022-10-16T08:38:42;1030.5;;;17.9;51.1
74431;BME280;62863;52.062;23.764;2022-10-16T08:44:22;1030.5;;;17.6;51.4
74431;BME280;62863;52.062;23.764;2022-10-16T08:48:45;1030.5;;;17.8;51.2
74431;BME280;62863;52.062;23.764;2022-10-16T08:54:21;1030.5;;;18;51.7
74431;BME280;62863;52.062;23.764;2022-10-16T08:59:06;1030.6;;;18.4;50.9
74431;BME280;62863;52.062;23.764;2022-10-16T09:04:22;1030.4;;;19.6;49.1
74431;BME280;62863;52.062;23.764;2022-10-16T09:09:33;1030.4;;;20;48.1
74431;BME280;62863;52.062;23.764;2022-10-16T09:13:43;1030.4;;;19.7;48.5
74431;BME280;62863;52.062;23.764;2022-10-16T09:18:43;1030.4;;;19.2;49
74431;BME280;62863;52.062;23.764;2022-10-16T09:23:41;1030.4;;;19;49.6
74431;BME280;62863;52.062;23.764;2022-10-16T09:29:16;1030.4;;;19;49.6
74431;BME280;62863;52.062;23.764;2022-10-16T09:34:05;1030.3;;;19.3;49.7
74431;BME280;62863;52.062;23.764;2022-10-16T09:39:10;1030.2;;;19.7;49.8
74431;BME280;62863;52.062;23.764;2022-10-16T09:44:17;1030.3;;;19.8;49.1
74431;BME280;62863;52.062;23.764;2022-10-16T09:49:19;1030.3;;;19.9;49.3
74431;BME280;62863;52.062;23.764;2022-10-16T09:54:18;1030.3;;;20;49.1
74431;BME280;62863;52.062;23.764;2022-10-16T09:59:31;1030.4;;;20.2;49.1
74431;BME280;62863;52.062;23.764;2022-10-16T10:03:42;1030.4;;;20.5;48.3
74431;BME280;62863;52.062;23.764;2022-10-16T10:08:51;1030.3;;;20.8;47.8
74431;BME280;62863;52.062;23.764;2022-10-16T10:14:03;1030.3;;;20.7;47.7
74431;BME280;62863;52.062;23.764;2022-10-16T10:19:30;1030.4;;;20.7;47.9
74431;BME280;62863;52.062;23.764;2022-10-16T10:24:31;1030.5;;;20.6;48.2
74431;BME280;62863;52.062;23.764;2022-10-16T10:29:09;1030.4;;;20.4;48.4
74431;BME280;62863;52.062;23.764;2022-10-16T10:34:35;1030.4;;;20.4;48.7
74431;BME280;62863;52.062;23.764;2022-10-16T10:39:20;1030.3;;;20.5;48.5
74431;BME280;62863;52.062;23.764;2022-10-16T10:43:58;1030.3;;;20.7;48.3
74431;BME280;62863;52.062;23.764;2022-10-16T10:49:09;1030.3;;;20.9;47.8
74431;BME280;62863;52.062;23.764;2022-10-16T10:54:12;1030.3;;;21.2;47.7
74431;BME280;62863;52.062;23.764;2022-10-16T10:59:00;1030.2;;;21.3;47.4
74431;BME280;62863;52.062;23.764;2022-10-16T11:04:23;1030.1;;;21.4;46.8
74431;BME280;62863;52.062;23.764;2022-10-16T11:08:42;1030.1;;;21.2;46.9
74431;BME280;62863;52.062;23.764;2022-10-16T11:14:28;1030.1;;;20.9;47.4
74431;BME280;62863;52.062;23.764;2022-10-16T11:19:33;1030.2;;;20.9;47.9
74431;BME280;62863;52.062;23.764;2022-10-16T11:24:09;1030.2;;;20.9;48.3
74431;BME280;62863;52.062;23.764;2022-10-16T11:29:09;1030.2;;;20.9;48.4
74431;BME280;62863;52.062;23.764;2022-10-16T11:34:32;1030.2;;;20.8;48.4
74431;BME280;62863;52.062;23.764;2022-10-16T11:39:28;1030.1;;;20.8;48.5
74431;BME280;62863;52.062;23.764;2022-10-16T11:43:59;1030;;;20.8;48.9
74431;BME280;62863;52.062;23.764;2022-10-16T11:48:57;1030;;;20.7;48.5
74431;BME280;62863;52.062;23.764;2022-10-16T11:53:57;1030;;;20.7;48.8
74431;BME280;62863;52.062;23.764;2022-10-16T11:59:19;1030.1;;;20.8;48.5
74431;BME280;62863;52.062;23.764;2022-10-16T12:04:20;1030;;;20.9;47.8
74431;BME280;62863;52.062;23.764;2022-10-16T12:09:09;1030;;;20.9;47.6
74431;BME280;62863;52.062;23.764;2022-10-16T12:14:32;1030;;;20.9;47.6
74431;BME280;62863;52.062;23.764;2022-10-16T12:19:20;1030;;;21.2;47.3
74431;BME280;62863;52.062;23.764;2022-10-16T12:23:50;1030;;;21.1;47.6
74431;BME280;62863;52.062;23.764;2022-10-16T12:29:21;1030;;;20.9;47.8
74431;BME280;62863;52.062;23.764;2022-10-16T12:34:32;1029.9;;;21.2;47.4
74431;BME280;62863;52.062;23.764;2022-10-16T12:38:45;1029.8;;;21.2;47.4
74431;BME280;62863;52.062;23.764;2022-10-16T12:43:56;1029.8;;;21.2;47.1
74431;BME280;62863;52.062;23.764;2022-10-16T12:49:30;1029.9;;;21.2;47.1
74431;BME280;62863;52.062;23.764;2022-10-16T12:54:21;1029.8;;;21.1;47.1
74431;BME280;62863;52.062;23.764;2022-10-16T12:59:26;1029.9;;;20.8;47.7
74431;BME280;62863;52.062;23.764;2022-10-16T13:04:15;1030;;;20.8;47.9
74431;BME280;62863;52.062;23.764;2022-10-16T13:09:28;1030;;;20.8;47.9
74431;BME280;62863;52.062;23.764;2022-10-16T13:14:33;1029.9;;;20.8;47.8
74431;BME280;62863;52.062;23.764;2022-10-16T13:19:06;1030;;;20.6;48.4
74431;BME280;62863;52.062;23.764;2022-10-16T13:23:49;1030.1;;;20.6;48.8
74431;BME280;62863;52.062;23.764;2022-10-16T13:29:08;1030.1;;;20.5;49.4
74431;BME280;62863;52.062;23.764;2022-10-16T13:34:18;1030.2;;;20.4;49.2
74431;BME280;62863;52.062;23.764;2022-10-16T13:39:10;1030.3;;;20.2;49.3
74431;BME280;62863;52.062;23.764;2022-10-16T13:43:52;1030.3;;;20.1;50.1
74431;BME280;62863;52.062;23.764;2022-10-16T13:49:32;1030.2;;;20;50.1
74431;BME280;62863;52.062;23.764;2022-10-16T13:54:32;1030.3;;;19.8;50.4
74431;BME280;62863;52.062;23.764;2022-10-16T13:59:22;1030.3;;;19.5;51.6
74431;BME280;62863;52.062;23.764;2022-10-16T14:04:29;1030.3;;;19.4;52.2
74431;BME280;62863;52.062;23.764;2022-10-16T14:09:32;1030.4;;;19.2;52.1
74431;BME280;62863;52.062;23.764;2022-10-16T14:14:33;1030.4;;;19.2;52.4
74431;BME280;62863;52.062;23.764;2022-10-16T14:18:56;1030.3;;;19.2;52.4
74431;BME280;62863;52.062;23.764;2022-10-16T14:24:21;1030.3;;;19;53.5
74431;BME280;62863;52.062;23.764;2022-10-16T14:29:28;1030.3;;;18.8;53.7
74431;BME280;62863;52.062;23.764;2022-10-16T14:34:32;1030.4;;;18.6;54.2
74431;BME280;62863;52.062;23.764;2022-10-16T14:39:14;1030.4;;;18.5;54.9
74431;BME280;62863;52.062;23.764;2022-10-16T14:44:20;1030.4;;;18.3;55.3
74431;BME280;62863;52.062;23.764;2022-10-16T14:49:18;1030.4;;;18.2;55.7
74431;BME280;62863;52.062;23.764;2022-10-16T14:53:42;1030.4;;;18;55.6
74431;BME280;62863;52.062;23.764;2022-10-16T14:59:17;1030.5;;;17.8;56.4
74431;BME280;62863;52.062;23.764;2022-10-16T15:04:32;1030.6;;;17.6;56.8
74431;BME280;62863;52.062;23.764;2022-10-16T15:08:56;1030.5;;;17.5;57.2
74431;BME280;62863;52.062;23.764;2022-10-16T15:13:56;1030.6;;;17.4;57.5
74431;BME280;62863;52.062;23.764;2022-10-16T15:19:32;1030.6;;;17.3;58.3
74431;BME280;62863;52.062;23.764;2022-10-16T15:24:22;1030.6;;;17.2;58.8
74431;BME280;62863;52.062;23.764;2022-10-16T15:29:30;1030.7;;;17.1;58.9
74431;BME280;62863;52.062;23.764;2022-10-16T15:34:18;1030.6;;;17;58.8
74431;BME280;62863;52.062;23.764;2022-10-16T15:39:20;1030.6;;;17;58.9
74431;BME280;62863;52.062;23.764;2022-10-16T15:44:30;1030.6;;;16.9;59.1
74431;BME280;62863;52.062;23.764;2022-10-16T15:49:06;1030.6;;;16.8;59.3
74431;BME280;62863;52.062;23.764;2022-10-16T15:54:06;1030.7;;;16.7;59.3
74431;BME280;62863;52.062;23.764;2022-10-16T15:58:56;1030.7;;;16.6;59.8
74431;BME280;62863;52.062;23.764;2022-10-16T16:03:58;1030.7;;;16.5;60.4
74431;BME280;62863;52.062;23.764;2022-10-16T16:08:52;1030.8;;;16.3;60.8
74431;BME280;62863;52.062;23.764;2022-10-16T16:14:06;1030.9;;;16.3;61
74431;BME280;62863;52.062;23.764;2022-10-16T16:19:30;1031;;;16.3;61.1
74431;BME280;62863;52.062;23.764;2022-10-16T16:24:28;1031.1;;;16.4;61.5
74431;BME280;62863;52.062;23.764;2022-10-16T16:29:06;1031.2;;;16.4;61.2
74431;BME280;62863;52.062;23.764;2022-10-16T16:34:30;1031.1;;;16.4;61
74431;BME280;62863;52.062;23.764;2022-10-16T16:39:18;1031.1;;;16.4;61
74431;BME280;62863;52.062;23.764;2022-10-16T16:44:28;1031.2;;;16.5;61
74431;BME280;62863;52.062;23.764;2022-10-16T16:48:52;1031.2;;;16.6;61
74431;BME280;62863;52.062;23.764;2022-10-16T16:54:18;1031.3;;;16.5;61.2
74431;BME280;62863;52.062;23.764;2022-10-16T16:58:56;1031.4;;;16.6;61
74431;BME280;62863;52.062;23.764;2022-10-16T17:04:16;1031.4;;;16.6;61
74431;BME280;62863;52.062;23.764;2022-10-16T17:09:04;1031.4;;;16.7;60.6
74431;BME280;62863;52.062;23.764;2022-10-16T17:14:20;1031.4;;;16.6;60.7
74431;BME280;62863;52.062;23.764;2022-10-16T17:19:15;1031.4;;;16.6;60.7
74431;BME280;62863;52.062;23.764;2022-10-16T17:24:14;1031.4;;;16.6;60.8
74431;BME280;62863;52.062;23.764;2022-10-16T17:29:18;1031.4;;;16.6;61
74431;BME280;62863;52.062;23.764;2022-10-16T17:34:28;1031.3;;;16.6;61
74431;BME280;62863;52.062;23.764;2022-10-16T17:38:56;1031.4;;;16.6;61.3
74431;BME280;62863;52.062;23.764;2022-10-16T17:43:42;1031.5;;;16.6;61.4
74431;BME280;62863;52.062;23.764;2022-10-16T17:48:43;1031.5;;;16.6;61.5
74431;BME280;62863;52.062;23.764;2022-10-16T17:54:04;1031.4;;;16.6;61.3
74431;BME280;62863;52.062;23.764;2022-10-16T17:59:28;1031.5;;;16.7;61.4
74431;BME280;62863;52.062;23.764;2022-10-16T18:04:06;1031.6;;;16.7;61.5
74431;BME280;62863;52.062;23.764;2022-10-16T18:09:26;1031.6;;;16.7;61.3
74431;BME280;62863;52.062;23.764;2022-10-16T18:14:16;1031.7;;;16.7;61.1
74431;BME280;62863;52.062;23.764;2022-10-16T18:19:06;1031.7;;;16.6;61.4
74431;BME280;62863;52.062;23.764;2022-10-16T18:23:56;1031.7;;;16.6;61.8
74431;BME280;62863;52.062;23.764;2022-10-16T18:28:56;1031.8;;;16.6;61.8
74431;BME280;62863;52.062;23.764;2022-10-16T18:33:58;1031.8;;;16.6;61.9
74431;BME280;62863;52.062;23.764;2022-10-16T18:38:42;1031.8;;;16.6;62
74431;BME280;62863;52.062;23.764;2022-10-16T18:43:56;1031.8;;;16.6;62.1
74431;BME280;62863;52.062;23.764;2022-10-16T18:49:30;1031.8;;;16.6;62.2
74431;BME280;62863;52.062;23.764;2022-10-16T18:54:18;1031.8;;;16.6;62.5
74431;BME280;62863;52.062;23.764;2022-10-16T18:59:06;1031.8;;;16.5;62.5
74431;BME280;62863;52.062;23.764;2022-10-16T19:04:07;1031.9;;;16.6;62.7
74431;BME280;62863;52.062;23.764;2022-10-16T19:09:16;1032;;;16.6;62.9
74431;BME280;62863;52.062;23.764;2022-10-16T19:14:28;1032;;;16.6;62.7
74431;BME280;62863;52.062;23.764;2022-10-16T19:18:59;1032;;;16.6;62.4
74431;BME280;62863;52.062;23.764;2022-10-16T19:23:57;1032;;;16.6;62.6
74431;BME280;62863;52.062;23.764;2022-10-16T19:29:06;1032.1;;;16.6;62.5
74431;BME280;62863;52.062;23.764;2022-10-16T19:34:20;1032.1;;;16.6;62.4
74431;BME280;62863;52.062;23.764;2022-10-16T19:39:07;1032.2;;;16.6;62.3
74431;BME280;62863;52.062;23.764;2022-10-16T19:44:26;1032.3;;;16.6;62.3
74431;BME280;62863;52.062;23.764;2022-10-16T19:49:17;1032.3;;;16.6;62.4
74431;BME280;62863;52.062;23.764;2022-10-16T19:54:18;1032.3;;;16.6;62.3
74431;BME280;62863;52.062;23.764;2022-10-16T19:59:04;1032.3;;;16.6;62.3
74431;BME280;62863;52.062;23.764;2022-10-16T20:04:30;1032.3;;;16.5;62.4
74431;BME280;62863;52.062;23.764;2022-10-16T20:08:56;1032.4;;;16.5;62.2
74431;BME280;62863;52.062;23.764;2022-10-16T20:13:42;1032.4;;;16.5;62.3
74431;BME280;62863;52.062;23.764;2022-10-16T20:18:56;1032.3;;;16.4;62.5
74431;BME280;62863;52.062;23.764;2022-10-16T20:24:28;1032.4;;;16.4;62.5
74431;BME280;62863;52.062;23.764;2022-10-16T20:29:28;1032.4;;;16.4;62.4
74431;BME280;62863;52.062;23.764;2022-10-16T20:34:06;1032.4;;;16.3;62.6
74431;BME280;62863;52.062;23.764;2022-10-16T20:39:32;1032.4;;;16.2;62.6
74431;BME280;62863;52.062;23.764;2022-10-16T20:44:18;1032.5;;;16.1;62.8
74431;BME280;62863;52.062;23.764;2022-10-16T20:49:08;1032.5;;;15.9;63.2
74431;BME280;62863;52.062;23.764;2022-10-16T20:54:09;1032.7;;;15.9;63.4
74431;BME280;62863;52.062;23.764;2022-10-16T20:58:56;1032.7;;;15.8;63.6
74431;BME280;62863;52.062;23.764;2022-10-16T21:03:42;1032.8;;;15.8;63.6
74431;BME280;62863;52.062;23.764;2022-10-16T21:08:42;1032.8;;;15.8;63.8
74431;BME280;62863;52.062;23.764;2022-10-16T21:14:08;1032.9;;;15.8;64
74431;BME280;62863;52.062;23.764;2022-10-16T21:18:42;1032.9;;;15.8;63.9
74431;BME280;62863;52.062;23.764;2022-10-16T21:24:30;1032.9;;;15.8;64
74431;BME280;62863;52.062;23.764;2022-10-16T21:29:18;1032.9;;;15.8;64.1
74431;BME280;62863;52.062;23.764;2022-10-16T21:34:06;1033;;;15.8;63.8
74431;BME280;62863;52.062;23.764;2022-10-16T21:39:30;1033;;;15.8;63.6
74431;BME280;62863;52.062;23.764;2022-10-16T21:44:18;1033.1;;;15.8;63.4
74431;BME280;62863;52.062;23.764;2022-10-16T21:49:32;1033.1;;;15.8;63.4
74431;BME280;62863;52.062;23.764;2022-10-16T21:53:56;1033.1;;;15.9;63.3
74431;BME280;62863;52.062;23.764;2022-10-16T21:58:54;1033.2;;;15.9;63.5
74431;BME280;62863;52.062;23.764;2022-10-16T22:04:32;1033.3;;;15.8;63.5
74431;BME280;62863;52.062;23.764;2022-10-16T22:09:18;1033.3;;;15.8;63.9
74431;BME280;62863;52.062;23.764;2022-10-16T22:14:04;1033.4;;;15.8;63.8
74431;BME280;62863;52.062;23.764;2022-10-16T22:19:10;1033.4;;;15.8;63.8
74431;BME280;62863;52.062;23.764;2022-10-16T22:23:44;1033.4;;;15.8;63.8
74431;BME280;62863;52.062;23.764;2022-10-16T22:28:56;1033.4;;;15.8;64
74431;BME280;62863;52.062;23.764;2022-10-16T22:34:18;1033.5;;;15.8;64.1
74431;BME280;62863;52.062;23.764;2022-10-16T22:39:26;1033.5;;;15.8;64
74431;BME280;62863;52.062;23.764;2022-10-16T22:43:56;1033.6;;;15.7;64.6
74431;BME280;62863;52.062;23.764;2022-10-16T22:48:56;1033.6;;;15.7;64.5
74431;BME280;62863;52.062;23.764;2022-10-16T22:54:30;1033.6;;;15.7;64.9
74431;BME280;62863;52.062;23.764;2022-10-16T22:59:18;1033.6;;;15.6;65.2
74431;BME280;62863;52.062;23.764;2022-10-16T23:04:26;1033.6;;;15.6;64.9
74431;BME280;62863;52.062;23.764;2022-10-16T23:09:06;1033.6;;;15.6;64.8
74431;BME280;62863;52.062;23.764;2022-10-16T23:14:18;1033.7;;;15.6;64.9
74431;BME280;62863;52.062;23.764;2022-10-16T23:19:28;1033.7;;;15.5;65.1
74431;BME280;62863;52.062;23.764;2022-10-16T23:23:42;1033.7;;;15.5;65.1
74431;BME280;62863;52.062;23.764;2022-10-16T23:28:48;1033.7;;;15.5;65.2
74431;BME280;62863;52.062;23.764;2022-10-16T23:33:42;1033.7;;;15.5;65.5
74431;BME280;62863;52.062;23.764;2022-10-16T23:39:06;1033.8;;;15.4;65.6
74431;BME280;62863;52.062;23.764;2022-10-16T23:44:04;1033.8;;;15.4;65.8
74431;BME280;62863;52.062;23.764;2022-10-16T23:49:06;1033.9;;;15.4;65.8
74431;BME280;62863;52.062;23.764;2022-10-16T23:54:24;1034;;;15.3;66.3
74431;BME280;62863;52.062;23.764;2022-10-16T23:59:24;1034;;;15.1;66.7
